Time;durP1;ratioP1;P1;durP2;ratioP2;P2;SDS_P1;SDS_P2;PMS_P1;PMS_P2;Temp;Humidity;BMP_temperature;BMP_pressure;BME280_temperature;BME280_humidity;BME280_pressure;Samples;Min_cycle;Max_cycle;Signal;HPM_P1;HPM_P2
2021/10/10 00:00:42;;;;;;;11.97;10.87;;;;;;;9.54;77.32;99661.00;5010049;28;103338;-61
2021/10/10 00:03:10;;;;;;;10.23;9.32;;;;;;;9.62;77.38;99659.66;5016773;28;102671;-61
2021/10/10 00:05:39;;;;;;;9.48;8.68;;;;;;;9.68;76.70;99661.13;4997371;28;102735;-61
2021/10/10 00:08:07;;;;;;;9.23;8.43;;;;;;;9.77;76.16;99664.09;5013714;28;103768;-62
2021/10/10 00:10:40;;;;;;;12.02;10.90;;;;;;;9.72;75.12;99666.13;5012793;28;103272;-61
2021/10/10 00:13:09;;;;;;;14.15;12.70;;;;;;;9.40;75.14;99655.59;5009745;28;102622;-61
2021/10/10 00:15:37;;;;;;;13.82;12.60;;;;;;;9.44;75.95;99665.03;5014669;28;102907;-63
2021/10/10 00:18:05;;;;;;;14.85;13.35;;;;;;;9.08;76.51;99666.00;5018301;28;104116;-61
2021/10/10 00:20:33;;;;;;;12.90;11.70;;;;;;;9.08;78.04;99665.16;5013860;28;103566;-62
2021/10/10 00:23:01;;;;;;;12.00;10.90;;;;;;;9.07;77.95;99671.34;5015642;28;102659;-61
2021/10/10 00:25:33;;;;;;;12.57;11.47;;;;;;;9.24;77.11;99663.44;5015379;28;102882;-61
2021/10/10 00:28:01;;;;;;;13.63;12.43;;;;;;;8.86;78.57;99661.91;5013188;28;104219;-62
2021/10/10 00:30:31;;;;;;;14.38;13.07;;;;;;;8.53;79.37;99662.63;5011133;28;103221;-63
2021/10/10 00:32:59;;;;;;;15.97;14.10;;;;;;;8.33;81.11;99667.19;4996206;28;102691;-63
2021/10/10 00:35:27;;;;;;;16.23;14.63;;;;;;;8.02;83.18;99657.22;5009951;28;103318;-61
2021/10/10 00:37:55;;;;;;;16.50;14.82;;;;;;;7.34;86.58;99666.47;5013781;28;103216;-63
2021/10/10 00:40:23;;;;;;;13.97;12.53;;;;;;;7.47;88.09;99659.72;4999436;28;103234;-60
2021/10/10 00:42:51;;;;;;;13.63;12.33;;;;;;;8.03;84.34;99658.91;5017082;28;102916;-61
2021/10/10 00:45:19;;;;;;;12.00;10.90;;;;;;;8.51;81.89;99656.59;5017572;28;102988;-61
2021/10/10 00:47:49;;;;;;;14.05;12.55;;;;;;;8.32;81.11;99655.78;5017236;28;103185;-61
2021/10/10 00:50:17;;;;;;;12.82;11.63;;;;;;;8.51;80.46;99651.31;5013412;28;103368;-61
2021/10/10 00:52:46;;;;;;;10.45;9.45;;;;;;;8.77;79.74;99654.44;5012616;28;102682;-61
2021/10/10 00:55:15;;;;;;;13.85;12.57;;;;;;;8.43;79.44;99650.84;5017302;28;102635;-62
2021/10/10 00:57:48;;;;;;;11.15;10.15;;;;;;;8.65;79.49;99654.13;5016218;28;103174;-61
2021/10/10 01:00:16;;;;;;;12.95;11.73;;;;;;;8.50;78.10;99654.91;5017059;28;103283;-64
2021/10/10 01:02:45;;;;;;;9.67;8.87;;;;;;;8.73;79.01;99648.47;5017462;27;102716;-63
2021/10/10 01:05:15;;;;;;;12.57;11.47;;;;;;;8.53;78.61;99646.81;5013279;28;102671;-65
2021/10/10 01:07:45;;;;;;;11.55;10.45;;;;;;;8.65;78.06;99648.88;5020168;28;103245;-63
2021/10/10 01:10:13;;;;;;;12.90;11.60;;;;;;;8.59;78.00;99654.44;5014844;28;103500;-65
2021/10/10 01:12:42;;;;;;;12.40;11.20;;;;;;;8.42;78.35;99651.75;5015693;28;102583;-61
2021/10/10 01:15:11;;;;;;;12.73;11.53;;;;;;;8.40;78.16;99648.38;5014788;28;103907;-63
2021/10/10 01:17:40;;;;;;;13.55;12.35;;;;;;;8.27;77.18;99647.25;5011265;28;103498;-62
2021/10/10 01:20:11;;;;;;;11.77;10.68;;;;;;;8.31;78.86;99643.53;5010111;28;103453;-64
2021/10/10 01:22:40;;;;;;;14.55;13.13;;;;;;;8.02;78.60;99636.16;5014687;28;102582;-62
2021/10/10 01:25:09;;;;;;;13.70;12.40;;;;;;;7.80;79.92;99636.31;5010112;28;103011;-62
2021/10/10 01:27:37;;;;;;;14.33;12.83;;;;;;;7.43;81.16;99637.13;5007386;28;103246;-61
2021/10/10 01:30:06;;;;;;;14.17;12.77;;;;;;;7.68;81.86;99638.63;5011576;28;103200;-62
2021/10/10 01:32:34;;;;;;;13.70;12.30;;;;;;;7.82;80.54;99633.59;5017285;28;102891;-61
2021/10/10 01:35:02;;;;;;;14.57;13.18;;;;;;;7.02;83.83;99635.44;5009825;28;102694;-62
2021/10/10 01:37:30;;;;;;;13.57;12.23;;;;;;;7.24;83.43;99636.22;5011979;28;104086;-61
2021/10/10 01:39:59;;;;;;;14.30;12.80;;;;;;;7.29;82.99;99623.75;5014505;28;103212;-70
2021/10/10 01:42:27;;;;;;;12.93;11.80;;;;;;;7.21;84.76;99625.00;5014088;28;102727;-60
2021/10/10 01:44:55;;;;;;;10.15;9.25;;;;;;;7.80;82.71;99619.69;5010754;28;102991;-63
2021/10/10 01:47:23;;;;;;;13.68;12.38;;;;;;;7.56;79.99;99619.00;5019874;28;104195;-62
2021/10/10 01:49:51;;;;;;;14.45;12.98;;;;;;;7.05;82.89;99616.06;5009753;28;103308;-61
2021/10/10 01:52:19;;;;;;;14.10;12.70;;;;;;;7.49;82.51;99613.16;5010140;28;102652;-61
2021/10/10 01:54:47;;;;;;;12.27;11.00;;;;;;;7.81;81.00;99616.09;5010787;28;102673;-61
2021/10/10 01:57:16;;;;;;;12.20;11.00;;;;;;;7.90;79.97;99610.41;5010257;28;103168;-61
2021/10/10 01:59:44;;;;;;;14.02;12.70;;;;;;;7.18;80.72;99617.25;5010336;28;103453;-61
2021/10/10 02:02:12;;;;;;;12.27;11.18;;;;;;;7.67;80.88;99615.88;5012135;27;102672;-61
2021/10/10 02:04:40;;;;;;;14.20;12.90;;;;;;;6.97;83.77;99629.53;5012336;28;102763;-61
2021/10/10 02:07:09;;;;;;;14.07;12.77;;;;;;;6.96;84.13;99623.44;5017025;28;103216;-62
2021/10/10 02:09:41;;;;;;;12.60;11.40;;;;;;;7.22;83.57;99622.28;5008218;28;103221;-62
2021/10/10 02:12:09;;;;;;;13.60;12.18;;;;;;;7.38;81.65;99618.06;5012864;28;102813;-62
2021/10/10 02:14:38;;;;;;;13.35;12.07;;;;;;;7.40;81.57;99621.50;5014358;28;102856;-63
2021/10/10 02:17:06;;;;;;;13.80;12.43;;;;;;;7.49;81.13;99620.22;5008578;28;103241;-63
2021/10/10 02:19:34;;;;;;;13.45;12.15;;;;;;;7.35;81.40;99623.47;5016627;28;103461;-63
2021/10/10 02:22:02;;;;;;;12.88;11.57;;;;;;;7.40;81.31;99613.59;5012353;28;102860;-63
2021/10/10 02:24:30;;;;;;;11.35;10.25;;;;;;;7.69;80.61;99616.69;5017565;28;102641;-62
2021/10/10 02:26:58;;;;;;;11.37;10.37;;;;;;;7.86;79.66;99620.22;5016601;28;103695;-62
2021/10/10 02:29:26;;;;;;;10.43;9.43;;;;;;;7.95;79.10;99617.16;5014866;28;102857;-62
2021/10/10 02:31:56;;;;;;;10.27;9.38;;;;;;;8.04;78.06;99619.38;5013448;28;102646;-62
2021/10/10 02:34:24;;;;;;;11.85;10.85;;;;;;;7.87;77.54;99621.06;4997971;28;102741;-63
2021/10/10 02:36:52;;;;;;;10.52;9.52;;;;;;;7.92;77.50;99624.34;5011870;28;103217;-63
2021/10/10 02:39:20;;;;;;;13.23;11.93;;;;;;;7.73;76.63;99618.22;5011370;28;103200;-61
2021/10/10 02:41:48;;;;;;;11.98;10.88;;;;;;;7.75;77.08;99624.31;4993839;28;102760;-62
2021/10/10 02:44:16;;;;;;;11.20;10.20;;;;;;;7.85;77.23;99626.44;5011265;28;102623;-62
2021/10/10 02:46:44;;;;;;;13.68;12.40;;;;;;;7.42;77.06;99630.16;5006066;28;102978;-62
2021/10/10 02:49:13;;;;;;;13.10;11.75;;;;;;;7.35;78.89;99636.63;5011200;28;103363;-62
2021/10/10 02:51:41;;;;;;;12.55;11.45;;;;;;;7.38;78.38;99623.31;5010634;28;102782;-62
2021/10/10 02:54:09;;;;;;;12.02;10.93;;;;;;;7.36;79.21;99629.56;5008416;28;103880;-60
2021/10/10 02:56:38;;;;;;;12.50;11.40;;;;;;;7.37;78.73;99626.88;5003925;28;104135;-61
2021/10/10 02:59:06;;;;;;;12.10;11.00;;;;;;;7.43;77.99;99631.03;4998378;28;103231;-61
2021/10/10 03:01:34;;;;;;;13.23;11.93;;;;;;;6.99;79.09;99625.06;5016281;28;102628;-61
2021/10/10 03:04:02;;;;;;;12.63;11.53;;;;;;;7.08;80.09;99627.31;5008275;28;103880;-61
2021/10/10 03:06:32;;;;;;;12.55;11.43;;;;;;;7.27;78.73;99632.63;5008644;28;104298;-62
2021/10/10 03:09:00;;;;;;;11.35;10.27;;;;;;;7.29;79.09;99631.63;4989645;28;104194;-63
2021/10/10 03:11:28;;;;;;;12.50;11.23;;;;;;;7.39;78.37;99625.03;5004291;28;104320;-62
2021/10/10 03:13:56;;;;;;;12.88;11.32;;;;;;;7.18;79.92;99633.88;5012549;28;103089;-62
2021/10/10 03:16:25;;;;;;;13.30;12.00;;;;;;;7.14;78.75;99629.66;5009671;28;103402;-62
2021/10/10 03:18:53;;;;;;;13.18;11.98;;;;;;;7.04;79.51;99638.03;5014304;28;103300;-62
2021/10/10 03:21:21;;;;;;;12.32;11.23;;;;;;;7.07;79.99;99633.50;4987724;28;103086;-61
2021/10/10 03:23:50;;;;;;;12.35;11.25;;;;;;;7.28;78.82;99632.53;5010191;28;103226;-61
2021/10/10 03:26:18;;;;;;;11.40;10.40;;;;;;;7.37;78.36;99629.53;5002794;28;103227;-61
2021/10/10 03:28:46;;;;;;;11.32;10.32;;;;;;;7.35;78.40;99631.38;5008576;28;102972;-61
2021/10/10 03:31:14;;;;;;;9.13;8.35;;;;;;;7.45;78.25;99624.75;5007663;28;103937;-61
2021/10/10 03:33:42;;;;;;;11.10;10.10;;;;;;;7.48;77.50;99627.25;5013045;28;102739;-61
2021/10/10 03:36:10;;;;;;;11.35;10.30;;;;;;;7.50;77.55;99628.03;5004562;28;103394;-61
2021/10/10 03:38:38;;;;;;;11.50;10.40;;;;;;;7.55;77.88;99627.84;5009400;28;103184;-61
2021/10/10 03:41:07;;;;;;;12.35;11.25;;;;;;;7.42;77.30;99624.03;5002900;28;102660;-61
2021/10/10 03:43:36;;;;;;;11.43;10.40;;;;;;;7.36;78.10;99622.53;5007566;28;104059;-61
2021/10/10 03:46:04;;;;;;;11.03;9.93;;;;;;;7.49;78.37;99621.06;5010274;28;103203;-61
2021/10/10 03:48:32;;;;;;;12.85;11.55;;;;;;;7.21;78.48;99617.13;5004368;28;103448;-61
2021/10/10 03:51:02;;;;;;;11.50;10.50;;;;;;;7.33;78.81;99627.06;5012079;28;102974;-61
2021/10/10 03:53:39;;;;;;;10.13;9.23;;;;;;;7.48;78.37;99619.38;5005055;28;102683;-61
2021/10/10 03:56:08;;;;;;;10.07;9.18;;;;;;;7.55;77.67;99619.97;5008372;28;103943;-61
2021/10/10 03:58:38;;;;;;;9.27;8.47;;;;;;;7.56;76.87;99622.50;4995457;28;103395;-62
2021/10/10 04:01:06;;;;;;;11.73;10.73;;;;;;;7.24;77.12;99624.88;5012731;28;102865;-62
2021/10/10 04:03:34;;;;;;;11.73;10.73;;;;;;;7.15;77.43;99620.88;5007465;28;102905;-62
2021/10/10 04:06:03;;;;;;;11.48;10.38;;;;;;;7.03;78.12;99624.03;4986814;28;103264;-62
2021/10/10 04:08:31;;;;;;;12.80;11.60;;;;;;;6.99;78.96;99619.81;5002289;28;103133;-62
2021/10/10 04:10:59;;;;;;;11.82;10.73;;;;;;;7.16;78.48;99625.19;5006982;28;102992;-62
2021/10/10 04:13:28;;;;;;;11.77;10.68;;;;;;;7.27;78.26;99620.31;5009730;28;104005;-62
2021/10/10 04:15:56;;;;;;;11.70;10.60;;;;;;;7.27;77.65;99620.31;5009878;28;103298;-62
2021/10/10 04:18:24;;;;;;;12.00;10.80;;;;;;;7.24;77.62;99622.25;5003172;28;103186;-62
2021/10/10 04:20:52;;;;;;;11.30;10.20;;;;;;;7.21;78.13;99620.63;5008750;28;102745;-62
2021/10/10 04:23:20;;;;;;;10.67;9.67;;;;;;;7.19;77.88;99611.91;5011853;28;103195;-62
2021/10/10 04:25:48;;;;;;;11.40;10.30;;;;;;;7.07;78.28;99617.75;5010815;28;104286;-62
2021/10/10 04:28:16;;;;;;;12.48;11.38;;;;;;;6.73;79.73;99622.72;5004257;28;103371;-61
2021/10/10 04:30:45;;;;;;;12.32;11.13;;;;;;;6.78;79.60;99621.59;5005092;28;102732;-61
2021/10/10 04:33:13;;;;;;;12.80;11.63;;;;;;;6.68;79.33;99622.06;4985244;28;102769;-61
2021/10/10 04:35:41;;;;;;;12.47;11.37;;;;;;;6.56;80.01;99625.19;5005671;28;103279;-61
2021/10/10 04:38:09;;;;;;;14.05;12.68;;;;;;;6.39;79.69;99625.88;5010535;28;103214;-61
2021/10/10 04:40:37;;;;;;;13.07;11.88;;;;;;;6.46;80.46;99619.47;5011412;28;103339;-61
2021/10/10 04:43:07;;;;;;;11.70;10.53;;;;;;;6.76;80.04;99622.59;5012067;28;102648;-61
2021/10/10 04:45:35;;;;;;;9.68;8.70;;;;;;;6.97;79.10;99616.41;5007331;28;103253;-61
2021/10/10 04:48:05;;;;;;;9.90;9.00;;;;;;;7.05;78.25;99611.66;5009860;27;103043;-62
2021/10/10 04:50:34;;;;;;;10.73;9.73;;;;;;;7.11;77.43;99598.25;4989133;28;102795;-61
2021/10/10 04:53:01;;;;;;;12.68;10.65;;;;;;;6.93;77.30;99614.84;5012418;28;104024;-62
2021/10/10 04:55:30;;;;;;;11.33;10.33;;;;;;;6.91;76.89;99606.16;5009305;28;103291;-61
2021/10/10 04:57:58;;;;;;;12.25;11.15;;;;;;;6.61;76.49;99607.47;5009665;28;103240;-61
2021/10/10 05:00:26;;;;;;;11.40;10.30;;;;;;;6.58;77.83;99607.59;5008814;28;102601;-60
2021/10/10 05:02:54;;;;;;;9.73;8.82;;;;;;;6.81;77.46;99612.75;5011368;28;102691;-60
2021/10/10 05:05:24;;;;;;;10.90;9.80;;;;;;;6.68;77.17;99616.81;5010997;28;103018;-61
2021/10/10 05:07:52;;;;;;;12.43;11.23;;;;;;;6.23;76.75;99625.63;5012146;28;103216;-60
2021/10/10 05:10:20;;;;;;;11.57;10.48;;;;;;;6.28;78.75;99626.34;5009566;28;102791;-63
2021/10/10 05:12:48;;;;;;;11.03;9.93;;;;;;;6.46;78.26;99619.47;5004808;28;104285;-62
2021/10/10 05:15:16;;;;;;;12.30;11.10;;;;;;;6.37;76.91;99620.69;4985993;28;103233;-61
2021/10/10 05:17:43;;;;;;;11.93;10.93;;;;;;;6.25;78.27;99625.59;5013077;28;103508;-62
2021/10/10 05:20:12;;;;;;;11.88;10.85;;;;;;;6.15;78.75;99625.09;5007191;28;103076;-62
2021/10/10 05:22:41;;;;;;;12.65;11.43;;;;;;;5.86;78.76;99619.31;5006262;28;102702;-60
2021/10/10 05:25:10;;;;;;;12.18;11.07;;;;;;;5.99;79.17;99628.38;5006709;28;103143;-62
2021/10/10 05:27:38;;;;;;;11.57;10.57;;;;;;;6.12;79.07;99627.00;5011874;28;103472;-62
2021/10/10 05:30:07;;;;;;;11.07;10.07;;;;;;;6.11;77.60;99625.28;5008841;28;102631;-60
2021/10/10 05:32:35;;;;;;;11.00;10.00;;;;;;;6.27;78.38;99626.38;5006742;28;104091;-60
2021/10/10 05:35:03;;;;;;;11.38;10.38;;;;;;;6.19;78.56;99626.69;5007766;28;103275;-62
2021/10/10 05:37:31;;;;;;;11.73;10.52;;;;;;;6.29;77.60;99625.41;4989529;28;103264;-62
2021/10/10 05:40:00;;;;;;;11.43;10.27;;;;;;;6.26;77.96;99628.16;4993889;28;102636;-61
2021/10/10 05:42:28;;;;;;;10.63;9.63;;;;;;;6.35;78.00;99627.78;5005043;28;103489;-62
2021/10/10 05:44:56;;;;;;;12.63;11.43;;;;;;;5.99;79.10;99631.00;5006913;28;103214;-62
2021/10/10 05:47:25;;;;;;;14.75;12.18;;;;;;;5.77;80.90;99631.81;5008117;28;103189;-62
2021/10/10 05:49:53;;;;;;;11.60;10.45;;;;;;;5.98;81.44;99632.78;5007389;28;102645;-63
2021/10/10 05:52:25;;;;;;;11.40;10.32;;;;;;;6.20;79.87;99633.63;5007715;28;102639;-62
2021/10/10 05:54:53;;;;;;;9.75;8.85;;;;;;;6.43;79.32;99635.34;4990529;28;103232;-61
2021/10/10 05:57:26;;;;;;;11.80;10.63;;;;;;;6.16;77.55;99642.56;5005721;28;103036;-61
2021/10/10 06:00:01;;;;;;;11.25;10.13;;;;;;;6.19;78.92;99642.44;5007959;28;102883;-62
2021/10/10 06:02:30;;;;;;;10.75;9.75;;;;;;;6.37;78.55;99639.06;5013123;28;102790;-62
2021/10/10 06:04:58;;;;;;;13.05;11.75;;;;;;;5.83;78.68;99638.59;4991022;28;103540;-62
2021/10/10 06:07:26;;;;;;;12.95;11.75;;;;;;;5.70;81.19;99645.19;5014736;28;103213;-60
2021/10/10 06:09:54;;;;;;;13.93;12.45;;;;;;;5.41;83.72;99648.06;5014433;28;103023;-63
2021/10/10 06:12:24;;;;;;;14.05;12.75;;;;;;;5.36;85.12;99652.63;5011119;28;104017;-62
2021/10/10 06:14:52;;;;;;;14.25;12.93;;;;;;;5.24;86.70;99640.81;5013333;28;103210;-62
2021/10/10 06:17:20;;;;;;;14.43;12.95;;;;;;;5.52;86.83;99645.91;5012456;28;103673;-61
2021/10/10 06:19:48;;;;;;;13.17;12.07;;;;;;;5.95;85.31;99645.19;5011886;28;102949;-62
2021/10/10 06:22:16;;;;;;;13.15;11.70;;;;;;;6.11;83.28;99649.75;4986429;28;102908;-62
2021/10/10 06:24:44;;;;;;;11.15;10.10;;;;;;;6.48;82.15;99643.03;5012080;28;103287;-62
2021/10/10 06:27:12;;;;;;;12.07;10.98;;;;;;;6.60;79.54;99645.13;5010387;28;103201;-62
2021/10/10 06:29:42;;;;;;;13.70;12.30;;;;;;;6.67;78.96;99657.13;5007388;27;103101;-62
2021/10/10 06:32:10;;;;;;;12.37;11.17;;;;;;;6.43;81.34;99658.97;5006346;28;102865;-62
2021/10/10 06:34:38;;;;;;;14.50;13.10;;;;;;;5.93;84.21;99660.09;4996859;28;103327;-61
2021/10/10 06:37:06;;;;;;;15.18;13.57;;;;;;;6.00;86.41;99662.44;5006345;28;103218;-60
2021/10/10 06:39:35;;;;;;;15.80;14.30;;;;;;;5.73;88.60;99663.44;5003921;28;103068;-61
2021/10/10 06:42:04;;;;;;;12.15;11.05;;;;;;;6.46;87.07;99669.34;5015234;28;102648;-60
2021/10/10 06:44:33;;;;;;;11.32;10.32;;;;;;;6.93;84.39;99662.13;5012541;28;102969;-62
2021/10/10 06:47:04;;;;;;;12.43;11.32;;;;;;;7.24;81.81;99659.88;5007906;28;103262;-62
2021/10/10 06:49:32;;;;;;;13.07;11.63;;;;;;;7.35;80.99;99657.66;5008021;28;102653;-62
2021/10/10 06:52:00;;;;;;;12.50;11.23;;;;;;;7.24;83.36;99666.94;5014057;28;103892;-62
2021/10/10 06:54:28;;;;;;;10.57;9.67;;;;;;;7.65;82.47;99657.19;4992996;28;104309;-62
2021/10/10 06:56:56;;;;;;;9.35;8.55;;;;;;;8.02;81.50;99651.94;5013104;28;103470;-62
2021/10/10 06:59:24;;;;;;;10.90;9.90;;;;;;;8.35;79.93;99655.63;5012770;28;102593;-62
2021/10/10 07:01:52;;;;;;;11.48;10.48;;;;;;;8.63;78.81;99666.53;5009906;28;103781;-63
2021/10/10 07:04:21;;;;;;;11.00;9.93;;;;;;;8.93;76.46;99665.91;5011065;28;103224;-63
2021/10/10 07:06:49;;;;;;;11.70;10.27;;;;;;;9.11;75.34;99665.00;5009497;28;103296;-63
2021/10/10 07:09:17;;;;;;;11.07;10.07;;;;;;;9.28;75.32;99667.63;5011368;28;102614;-63
2021/10/10 07:11:45;;;;;;;11.98;10.82;;;;;;;9.37;74.58;99664.53;5006246;28;102676;-63
2021/10/10 07:14:13;;;;;;;11.70;10.60;;;;;;;9.65;74.30;99667.41;5006932;28;103285;-63
2021/10/10 07:16:43;;;;;;;12.13;10.93;;;;;;;9.86;73.88;99665.38;5007079;28;103269;-62
2021/10/10 07:19:11;;;;;;;11.63;10.57;;;;;;;10.07;72.93;99658.09;5013892;28;102575;-63
2021/10/10 07:21:44;;;;;;;12.68;11.15;;;;;;;10.29;72.50;99671.84;5011716;28;102993;-63
2021/10/10 07:26:57;;;;;;;14.82;13.38;;;;;;;8.47;79.19;99680.53;5005693;28;103464;-66
2021/10/10 07:29:25;;;;;;;13.63;12.23;;;;;;;9.10;78.14;99676.47;5010535;28;102627;-65
2021/10/10 07:31:53;;;;;;;14.05;12.55;;;;;;;9.67;76.25;99678.72;4996187;28;103276;-63
2021/10/10 07:34:21;;;;;;;14.85;13.30;;;;;;;8.77;79.92;99679.03;5004353;28;103051;-63
2021/10/10 07:36:50;;;;;;;13.60;12.23;;;;;;;9.22;78.05;99676.72;5010904;28;103208;-63
2021/10/10 07:39:19;;;;;;;13.30;12.00;;;;;;;9.46;78.77;99679.00;5005734;28;102656;-63
2021/10/10 07:41:47;;;;;;;14.35;12.82;;;;;;;9.48;78.00;99674.50;5005984;28;104127;-65
2021/10/10 07:44:15;;;;;;;12.07;10.88;;;;;;;10.45;76.87;99675.31;5005839;28;103272;-65
2021/10/10 07:46:44;;;;;;;13.95;12.20;;;;;;;10.75;72.59;99675.38;5002067;28;103203;-65
2021/10/10 07:49:12;;;;;;;12.20;11.00;;;;;;;11.21;73.67;99673.50;5003289;28;102743;-65
2021/10/10 07:51:40;;;;;;;13.25;11.95;;;;;;;11.65;69.48;99669.03;5008939;28;104234;-62
2021/10/10 07:54:09;;;;;;;12.63;11.32;;;;;;;11.67;71.75;99672.44;5006931;28;104049;-63
2021/10/10 07:56:37;;;;;;;12.13;10.93;;;;;;;12.27;67.45;99678.38;5004334;28;103025;-66
2021/10/10 07:59:05;;;;;;;13.07;11.88;;;;;;;11.36;72.64;99673.47;5011947;28;103267;-65
2021/10/10 08:01:33;;;;;;;14.27;12.30;;;;;;;10.91;71.52;99676.19;5007900;28;102896;-65
2021/10/10 08:04:01;;;;;;;12.68;11.48;;;;;;;12.25;69.49;99677.63;5009442;28;103322;-63
2021/10/10 08:06:30;;;;;;;12.57;11.38;;;;;;;12.73;66.54;99671.81;4986121;28;103259;-66
2021/10/10 08:08:58;;;;;;;12.57;11.07;;;;;;;11.65;69.57;99667.22;5004335;28;104175;-63
2021/10/10 08:11:27;;;;;;;12.97;11.43;;;;;;;11.62;71.36;99670.06;5010011;28;102965;-63
2021/10/10 08:13:55;;;;;;;11.80;10.60;;;;;;;12.92;66.60;99666.13;4989554;28;103236;-66
2021/10/10 08:16:23;;;;;;;12.45;11.35;;;;;;;13.45;66.08;99669.63;5004610;28;103228;-63
2021/10/10 08:18:51;;;;;;;11.82;10.60;;;;;;;14.09;63.65;99661.50;5007671;28;102767;-63
2021/10/10 08:21:21;;;;;;;12.35;11.10;;;;;;;13.83;63.24;99667.81;5009824;28;102681;-63
2021/10/10 08:23:49;;;;;;;12.32;11.13;;;;;;;13.94;62.77;99667.91;5008905;28;103940;-65
2021/10/10 08:26:17;;;;;;;;;;;;;;;13.03;63.67;99676.00;5012544;28;103260;-65
2021/10/10 08:28:46;;;;;;;;;;;;;;;13.43;63.30;99667.09;5010582;28;103020;-60
2021/10/10 08:31:14;;;;;;;;;;;;;;;13.67;63.84;99669.88;5015763;28;102651;-60
2021/10/10 08:33:42;;;;;;;;;;;;;;;13.39;63.55;99665.59;5013093;28;103306;-60
2021/10/10 08:36:10;;;;;;;;;;;;;;;13.45;63.70;99666.97;5007356;28;103230;-61
2021/10/10 08:38:38;;;;;;;;;;;;;;;13.86;62.92;99671.13;5007705;28;102873;-62
2021/10/10 08:41:06;;;;;;;;;;;;;;;14.21;62.18;99665.09;5010482;28;103320;-61
2021/10/10 08:43:35;;;;;;;;;;;;;;;13.88;63.41;99673.66;5012985;28;103191;-61
2021/10/10 08:46:06;;;;;;;;;;;;;;;14.30;60.92;99670.59;5005234;28;103025;-61
2021/10/10 08:48:34;;;;;;;;;;;;;;;13.79;62.92;99674.28;5007480;28;102688;-61
2021/10/10 08:51:01;;;;;;;;;;;;;;;14.19;61.47;99678.50;5008497;28;103961;-61
2021/10/10 08:53:29;;;;;;;;;;;;;;;14.16;61.31;99676.06;5010714;28;103203;-62
2021/10/10 08:55:57;;;;;;;;;;;;;;;14.01;61.58;99678.97;5012648;28;103187;-62
2021/10/10 08:58:30;;;;;;;;;;;;;;;14.32;59.84;99674.03;5010144;28;102872;-61
2021/10/10 09:01:02;;;;;;;;;;;;;;;14.51;59.60;99674.38;4983178;28;104093;-61
2021/10/10 09:03:31;;;;;;;;;;;;;;;14.09;59.94;99680.09;5012867;28;103061;-62
2021/10/10 09:06:00;;;;;;;;;;;;;;;14.26;59.71;99679.75;5006553;28;103355;-61
2021/10/10 09:08:28;;;;;;;;;;;;;;;14.28;59.15;99677.00;4987056;28;102679;-61
2021/10/10 09:10:58;;;;;;;;;;;;;;;14.92;59.23;99668.66;5008541;28;103081;-61
2021/10/10 09:13:32;;;;;;;;;;;;;;;14.74;60.44;99669.16;5007377;28;104142;-61
2021/10/10 09:16:01;;;;;;;;;;;;;;;14.89;60.67;99660.06;5000798;28;103368;-62
2021/10/10 09:18:35;;;;;;;;;;;;;;;15.00;57.59;99660.09;5010738;28;102635;-63
2021/10/10 09:21:16;;;;;;;;;;;;;;;15.16;57.72;99652.66;5007284;28;102738;-62
2021/10/10 09:23:46;;;;;;;;;;;;;;;14.63;59.17;99661.13;5006804;28;103227;-60
2021/10/10 09:26:14;;;;;;;;;;;;;;;14.00;61.05;99653.34;5009944;28;103310;-60
2021/10/10 09:28:41;;;;;;;;;;;;;;;14.74;58.40;99658.53;5009710;28;102640;-62
2021/10/10 09:31:09;;;;;;;;;;;;;;;15.11;58.32;99652.16;5012868;28;103556;-60
2021/10/10 09:33:44;;;;;;;;;;;;;;;14.52;59.06;99657.47;5011682;28;103230;-62
2021/10/10 09:36:17;;;;;;;;;;;;;;;14.36;60.37;99664.03;5011665;28;103265;-61
2021/10/10 09:38:49;;;;;;;;;;;;;;;15.24;57.98;99658.22;5007370;28;102768;-61
2021/10/10 09:41:26;;;;;;;;;;;;;;;15.14;58.52;99662.56;4999436;28;102844;-61
2021/10/10 09:43:57;;;;;;;;;;;;;;;15.27;58.50;99665.97;5006881;28;103276;-61
2021/10/10 09:46:25;;;;;;;;;;;;;;;15.09;57.42;99659.41;5014385;28;103015;-63
2021/10/10 09:48:55;;;;;;;;;;;;;;;15.34;55.93;99658.38;5014065;28;102914;-62
2021/10/10 09:51:33;;;;;;;;;;;;;;;15.40;55.23;99658.78;5014160;28;104164;-64
2021/10/10 09:54:01;;;;;;;;;;;;;;;14.82;55.87;99666.81;5011642;28;103244;-62
2021/10/10 09:56:29;;;;;;;;;;;;;;;15.29;56.30;99653.44;5019204;28;103312;-62
2021/10/10 09:58:57;;;;;;;;;;;;;;;15.23;55.36;99659.22;5010401;28;102693;-61
2021/10/10 10:01:25;;;;;;;;;;;;;;;14.97;56.72;99655.00;5016001;28;102911;-62
2021/10/10 10:03:59;;;;;;;;;;;;;;;14.15;57.41;99655.75;5012992;28;103356;-61
2021/10/10 10:06:28;;;;;;;;;;;;;;;14.99;56.23;99655.72;4999239;28;103231;-62
2021/10/10 10:09:01;;;;;;;;;;;;;;;15.12;57.00;99651.19;5016139;28;103959;-61
2021/10/10 10:11:30;;;;;;;;;;;;;;;15.67;54.50;99645.16;5012688;28;104234;-61
2021/10/10 10:14:00;;;;;;;;;;;;;;;15.71;52.97;99651.94;5010536;28;103253;-62
2021/10/10 10:16:28;;;;;;;;;;;;;;;15.83;54.02;99639.47;5009616;28;104536;-62
2021/10/10 10:18:58;;;;;;;;;;;;;;;15.41;54.27;99641.81;5014358;28;102666;-62
2021/10/10 10:21:27;;;;;;;;;;;;;;;15.10;54.01;99640.66;5012732;28;102745;-62
2021/10/10 10:23:57;;;;;;;;;;;;;;;15.63;52.69;99636.53;4996487;28;104221;-62
2021/10/10 10:26:25;;;;;;;;;;;;;;;16.30;52.17;99636.53;5014427;28;103210;-62
2021/10/10 10:28:53;;;;;;;;;;;;;;;15.95;53.13;99638.47;5011573;28;102669;-63
2021/10/10 10:31:22;;;;;;;;;;;;;;;15.36;52.63;99641.31;4992199;28;103657;-62
2021/10/10 10:33:54;;;;;;;;;;;;;;;14.11;56.36;99643.66;5008311;28;103960;-61
2021/10/10 10:36:36;;;;;;;;;;;;;;;14.54;54.78;99640.56;5009568;28;103156;-61
2021/10/10 10:39:05;;;;;;;;;;;;;;;14.15;56.58;99638.94;5011547;28;102673;-61
2021/10/10 10:41:49;;;;;;;;;;;;;;;15.35;53.44;99631.66;5009208;28;103800;-61
2021/10/10 10:44:35;;;;;;;;;;;;;;;15.80;51.70;99626.41;5010350;28;103967;-62
2021/10/10 10:47:04;;;;;;;;;;;;;;;15.74;53.74;99624.22;5010540;28;103860;-62
2021/10/10 10:49:45;;;;;;;;;;;;;;;15.49;52.13;99625.28;5012955;28;102665;-62
2021/10/10 10:52:22;;;;;;;;;;;;;;;16.28;51.11;99630.44;5012959;28;102771;-62
2021/10/10 10:54:54;;;;;;;;;;;;;;;15.43;52.81;99621.25;5008353;28;103180;-61
2021/10/10 10:57:28;;;;;;;;;;;;;;;14.09;55.35;99634.91;5010114;28;103194;-61
2021/10/10 11:00:00;;;;;;;;;;;;;;;14.70;55.01;99619.84;4995453;28;102747;-61
2021/10/10 11:02:43;;;;;;;;;;;;;;;15.27;54.95;99625.22;5009198;28;104242;-61
2021/10/10 11:05:12;;;;;;;;;;;;;;;16.11;52.74;99617.66;4999863;28;103339;-61
2021/10/10 11:07:48;;;;;;;;;;;;;;;15.84;51.98;99619.84;5009378;28;103162;-62
2021/10/10 11:10:18;;;;;;;;;;;;;;;16.73;50.37;99616.03;5010014;28;103025;-62
2021/10/10 11:12:52;;;;;;;;;;;;;;;15.69;52.36;99616.56;5009786;28;102734;-62
2021/10/10 11:15:20;;;;;;;;;;;;;;;14.63;54.34;99630.06;5011008;28;103242;-63
2021/10/10 11:17:54;;;;;;;;;;;;;;;15.74;53.22;99618.88;5011672;28;103256;-62
2021/10/10 11:20:22;;;;;;;;;;;;;;;15.98;51.92;99612.44;5002158;28;102698;-63
2021/10/10 11:22:49;;;;;;;;;;;;;;;14.92;54.20;99611.94;5007704;28;102627;-62
2021/10/10 11:25:19;;;;;;;;;;;;;;;14.99;54.39;99615.81;5011943;28;103173;-62
2021/10/10 11:27:49;;;;;;;;;;;;;;;15.79;53.63;99616.69;5010351;28;103137;-62
2021/10/10 11:30:17;;;;;;;;;;;;;;;15.44;53.10;99606.97;5004742;28;102706;-62
2021/10/10 11:32:52;;;;;;;;;;;;;;;16.18;53.35;99597.50;5008455;28;102934;-63
2021/10/10 11:35:24;;;;;;;;;;;;;;;17.06;49.62;99591.03;4984742;28;103243;-63
2021/10/10 11:38:01;;;;;;;;;;;;;;;17.48;48.19;99583.81;4991715;28;104110;-60
2021/10/10 11:40:32;;;;;;;;;;;;;;;17.55;48.29;99576.97;5004186;28;102649;-60
2021/10/10 11:43:00;;;;;;;;;;;;;;;16.32;51.91;99577.72;5010373;28;104416;-60
2021/10/10 11:45:28;;;;;;;;;;;;;;;17.75;49.28;99578.75;5010249;28;104370;-60
2021/10/10 11:47:56;;;;;;;;;;;;;;;17.08;49.23;99582.88;5009542;28;103182;-60
2021/10/10 11:50:24;;;;;;;;;;;;;;;17.77;47.62;99586.63;4993881;28;102594;-60